sensor_id;sensor_type;location;lat;lon;timestamp;P1;durP1;ratioP1;P2;durP2;ratioP2
57325;SDS011;43161;50.950;18.224;2023-07-20T00:00:07;12.70;;;3.10;;
57325;SDS011;43161;50.950;18.224;2023-07-20T00:02:33;9.30;;;3.20;;
57325;SDS011;43161;50.950;18.224;2023-07-20T00:04:59;10.50;;;2.90;;
57325;SDS011;43161;50.950;18.224;2023-07-20T00:07:25;15.70;;;4.00;;
57325;SDS011;43161;50.950;18.224;2023-07-20T00:09:50;9.80;;;3.00;;
57325;SDS011;43161;50.950;18.224;2023-07-20T00:12:16;11.60;;;2.90;;
57325;SDS011;43161;50.950;18.224;2023-07-20T00:14:42;13.70;;;3.20;;
57325;SDS011;43161;50.950;18.224;2023-07-20T00:17:08;12.00;;;3.00;;
57325;SDS011;43161;50.950;18.224;2023-07-20T00:19:33;9.50;;;2.90;;
57325;SDS011;43161;50.950;18.224;2023-07-20T00:22:00;12.50;;;3.00;;
57325;SDS011;43161;50.950;18.224;2023-07-20T00:24:27;13.40;;;3.10;;
57325;SDS011;43161;50.950;18.224;2023-07-20T00:26:53;12.50;;;3.30;;
57325;SDS011;43161;50.950;18.224;2023-07-20T00:29:19;11.20;;;3.20;;
57325;SDS011;43161;50.950;18.224;2023-07-20T00:31:45;12.10;;;3.40;;
57325;SDS011;43161;50.950;18.224;2023-07-20T00:34:10;8.90;;;2.80;;
57325;SDS011;43161;50.950;18.224;2023-07-20T00:36:36;12.30;;;3.30;;
57325;SDS011;43161;50.950;18.224;2023-07-20T00:39:02;11.80;;;3.70;;
57325;SDS011;43161;50.950;18.224;2023-07-20T00:41:28;11.20;;;3.50;;
57325;SDS011;43161;50.950;18.224;2023-07-20T00:43:55;9.60;;;3.20;;
57325;SDS011;43161;50.950;18.224;2023-07-20T00:46:24;13.40;;;3.00;;
57325;SDS011;43161;50.950;18.224;2023-07-20T00:48:50;15.00;;;3.10;;
57325;SDS011;43161;50.950;18.224;2023-07-20T00:51:17;10.60;;;2.80;;
57325;SDS011;43161;50.950;18.224;2023-07-20T00:53:42;10.30;;;3.00;;
57325;SDS011;43161;50.950;18.224;2023-07-20T00:56:08;9.20;;;2.80;;
57325;SDS011;43161;50.950;18.224;2023-07-20T00:58:35;11.50;;;2.70;;
57325;SDS011;43161;50.950;18.224;2023-07-20T01:01:01;10.50;;;2.90;;
57325;SDS011;43161;50.950;18.224;2023-07-20T01:03:27;11.10;;;3.30;;
57325;SDS011;43161;50.950;18.224;2023-07-20T01:08:43;14.30;;;3.50;;
57325;SDS011;43161;50.950;18.224;2023-07-20T01:14:22;8.60;;;3.10;;
57325;SDS011;43161;50.950;18.224;2023-07-20T01:16:48;9.50;;;3.10;;
57325;SDS011;43161;50.950;18.224;2023-07-20T01:19:15;10.80;;;2.90;;
57325;SDS011;43161;50.950;18.224;2023-07-20T01:21:45;9.30;;;2.90;;
57325;SDS011;43161;50.950;18.224;2023-07-20T01:26:55;10.40;;;3.40;;
57325;SDS011;43161;50.950;18.224;2023-07-20T01:32:08;12.30;;;3.50;;
57325;SDS011;43161;50.950;18.224;2023-07-20T01:34:35;14.50;;;4.20;;
57325;SDS011;43161;50.950;18.224;2023-07-20T01:37:02;10.50;;;4.40;;
57325;SDS011;43161;50.950;18.224;2023-07-20T01:39:28;10.80;;;4.40;;
57325;SDS011;43161;50.950;18.224;2023-07-20T01:41:54;11.10;;;4.30;;
57325;SDS011;43161;50.950;18.224;2023-07-20T01:44:20;17.30;;;4.50;;
57325;SDS011;43161;50.950;18.224;2023-07-20T01:46:45;11.30;;;4.50;;
57325;SDS011;43161;50.950;18.224;2023-07-20T01:49:11;10.90;;;3.90;;
57325;SDS011;43161;50.950;18.224;2023-07-20T01:51:37;12.10;;;4.00;;
57325;SDS011;43161;50.950;18.224;2023-07-20T01:54:02;12.00;;;4.80;;
57325;SDS011;43161;50.950;18.224;2023-07-20T01:56:28;12.60;;;5.20;;
57325;SDS011;43161;50.950;18.224;2023-07-20T01:58:54;15.70;;;5.90;;
57325;SDS011;43161;50.950;18.224;2023-07-20T02:01:19;14.20;;;5.90;;
57325;SDS011;43161;50.950;18.224;2023-07-20T02:03:45;11.80;;;5.20;;
57325;SDS011;43161;50.950;18.224;2023-07-20T02:06:11;12.80;;;4.90;;
57325;SDS011;43161;50.950;18.224;2023-07-20T02:08:36;13.00;;;4.80;;
57325;SDS011;43161;50.950;18.224;2023-07-20T02:11:02;16.30;;;5.10;;
57325;SDS011;43161;50.950;18.224;2023-07-20T02:13:28;13.10;;;5.80;;
57325;SDS011;43161;50.950;18.224;2023-07-20T02:15:53;15.40;;;6.30;;
57325;SDS011;43161;50.950;18.224;2023-07-20T02:18:19;14.20;;;5.70;;
57325;SDS011;43161;50.950;18.224;2023-07-20T02:20:44;13.50;;;5.60;;
57325;SDS011;43161;50.950;18.224;2023-07-20T02:23:11;12.30;;;5.40;;
57325;SDS011;43161;50.950;18.224;2023-07-20T02:25:36;14.30;;;6.00;;
57325;SDS011;43161;50.950;18.224;2023-07-20T02:28:03;12.90;;;4.80;;
57325;SDS011;43161;50.950;18.224;2023-07-20T02:30:29;16.00;;;5.60;;
57325;SDS011;43161;50.950;18.224;2023-07-20T02:32:55;12.70;;;5.20;;
57325;SDS011;43161;50.950;18.224;2023-07-20T02:35:23;13.10;;;5.20;;
57325;SDS011;43161;50.950;18.224;2023-07-20T02:37:49;23.60;;;5.40;;
57325;SDS011;43161;50.950;18.224;2023-07-20T02:40:15;12.80;;;5.70;;
57325;SDS011;43161;50.950;18.224;2023-07-20T02:42:40;12.90;;;5.40;;
57325;SDS011;43161;50.950;18.224;2023-07-20T02:45:06;15.50;;;5.70;;
57325;SDS011;43161;50.950;18.224;2023-07-20T02:47:32;13.80;;;5.30;;
57325;SDS011;43161;50.950;18.224;2023-07-20T02:49:59;13.30;;;5.70;;
57325;SDS011;43161;50.950;18.224;2023-07-20T02:52:25;14.80;;;5.20;;
57325;SDS011;43161;50.950;18.224;2023-07-20T02:54:50;13.70;;;5.60;;
57325;SDS011;43161;50.950;18.224;2023-07-20T02:57:17;18.90;;;6.90;;
57325;SDS011;43161;50.950;18.224;2023-07-20T02:59:42;14.60;;;5.90;;
57325;SDS011;43161;50.950;18.224;2023-07-20T03:02:08;14.00;;;5.80;;
57325;SDS011;43161;50.950;18.224;2023-07-20T03:04:36;16.40;;;5.70;;
57325;SDS011;43161;50.950;18.224;2023-07-20T03:07:05;14.90;;;5.70;;
57325;SDS011;43161;50.950;18.224;2023-07-20T03:09:32;16.50;;;6.00;;
57325;SDS011;43161;50.950;18.224;2023-07-20T03:11:58;13.90;;;5.30;;
57325;SDS011;43161;50.950;18.224;2023-07-20T03:14:23;11.30;;;4.20;;
57325;SDS011;43161;50.950;18.224;2023-07-20T03:16:49;13.80;;;4.40;;
57325;SDS011;43161;50.950;18.224;2023-07-20T03:19:15;14.60;;;4.80;;
57325;SDS011;43161;50.950;18.224;2023-07-20T03:21:40;11.50;;;4.40;;
57325;SDS011;43161;50.950;18.224;2023-07-20T03:24:07;11.40;;;4.40;;
57325;SDS011;43161;50.950;18.224;2023-07-20T03:26:34;15.00;;;4.90;;
57325;SDS011;43161;50.950;18.224;2023-07-20T03:29:00;16.00;;;5.20;;
57325;SDS011;43161;50.950;18.224;2023-07-20T03:31:26;15.00;;;5.00;;
57325;SDS011;43161;50.950;18.224;2023-07-20T03:33:52;14.40;;;5.00;;
57325;SDS011;43161;50.950;18.224;2023-07-20T03:36:18;15.20;;;4.80;;
57325;SDS011;43161;50.950;18.224;2023-07-20T03:38:43;21.70;;;5.70;;
57325;SDS011;43161;50.950;18.224;2023-07-20T03:41:09;19.40;;;5.60;;
57325;SDS011;43161;50.950;18.224;2023-07-20T03:43:37;16.40;;;5.40;;
57325;SDS011;43161;50.950;18.224;2023-07-20T03:46:02;15.90;;;5.50;;
57325;SDS011;43161;50.950;18.224;2023-07-20T03:48:32;13.00;;;5.80;;
57325;SDS011;43161;50.950;18.224;2023-07-20T03:50:58;15.70;;;4.90;;
57325;SDS011;43161;50.950;18.224;2023-07-20T03:53:25;12.80;;;5.50;;
57325;SDS011;43161;50.950;18.224;2023-07-20T03:55:51;11.80;;;4.90;;
57325;SDS011;43161;50.950;18.224;2023-07-20T03:58:18;13.40;;;4.90;;
57325;SDS011;43161;50.950;18.224;2023-07-20T04:00:45;14.00;;;5.90;;
57325;SDS011;43161;50.950;18.224;2023-07-20T04:03:11;18.10;;;5.50;;
57325;SDS011;43161;50.950;18.224;2023-07-20T04:05:37;15.00;;;5.70;;
57325;SDS011;43161;50.950;18.224;2023-07-20T04:08:03;17.00;;;5.80;;
57325;SDS011;43161;50.950;18.224;2023-07-20T04:10:29;16.20;;;5.70;;
57325;SDS011;43161;50.950;18.224;2023-07-20T04:12:55;15.10;;;6.30;;
57325;SDS011;43161;50.950;18.224;2023-07-20T04:15:20;14.20;;;6.00;;
57325;SDS011;43161;50.950;18.224;2023-07-20T04:17:47;19.20;;;5.90;;
57325;SDS011;43161;50.950;18.224;2023-07-20T04:20:13;13.70;;;5.60;;
57325;SDS011;43161;50.950;18.224;2023-07-20T04:22:38;12.80;;;5.30;;
57325;SDS011;43161;50.950;18.224;2023-07-20T04:25:04;16.40;;;6.60;;
57325;SDS011;43161;50.950;18.224;2023-07-20T04:27:30;16.00;;;6.00;;
57325;SDS011;43161;50.950;18.224;2023-07-20T04:29:59;15.10;;;5.50;;
57325;SDS011;43161;50.950;18.224;2023-07-20T04:32:25;17.70;;;7.00;;
57325;SDS011;43161;50.950;18.224;2023-07-20T04:34:51;19.10;;;5.10;;
57325;SDS011;43161;50.950;18.224;2023-07-20T04:37:17;15.50;;;5.70;;
57325;SDS011;43161;50.950;18.224;2023-07-20T04:39:42;13.80;;;5.60;;
57325;SDS011;43161;50.950;18.224;2023-07-20T04:42:08;12.00;;;6.10;;
57325;SDS011;43161;50.950;18.224;2023-07-20T04:44:34;11.20;;;5.00;;
57325;SDS011;43161;50.950;18.224;2023-07-20T04:46:59;14.20;;;4.90;;
57325;SDS011;43161;50.950;18.224;2023-07-20T04:49:25;10.10;;;4.80;;
57325;SDS011;43161;50.950;18.224;2023-07-20T04:51:51;12.10;;;4.50;;
57325;SDS011;43161;50.950;18.224;2023-07-20T04:54:17;10.10;;;4.00;;
57325;SDS011;43161;50.950;18.224;2023-07-20T04:56:44;11.20;;;3.90;;
57325;SDS011;43161;50.950;18.224;2023-07-20T04:59:10;9.80;;;3.60;;
57325;SDS011;43161;50.950;18.224;2023-07-20T05:01:36;10.40;;;3.90;;
57325;SDS011;43161;50.950;18.224;2023-07-20T05:04:02;9.20;;;3.40;;
57325;SDS011;43161;50.950;18.224;2023-07-20T05:06:27;9.40;;;3.50;;
57325;SDS011;43161;50.950;18.224;2023-07-20T05:08:53;9.30;;;3.60;;
57325;SDS011;43161;50.950;18.224;2023-07-20T05:11:19;9.20;;;3.00;;
57325;SDS011;43161;50.950;18.224;2023-07-20T05:13:45;11.80;;;4.00;;
57325;SDS011;43161;50.950;18.224;2023-07-20T05:16:11;10.90;;;3.80;;
57325;SDS011;43161;50.950;18.224;2023-07-20T05:18:38;9.50;;;3.40;;
57325;SDS011;43161;50.950;18.224;2023-07-20T05:21:05;10.50;;;3.50;;
57325;SDS011;43161;50.950;18.224;2023-07-20T05:23:31;11.20;;;4.00;;
57325;SDS011;43161;50.950;18.224;2023-07-20T05:25:58;10.20;;;3.80;;
57325;SDS011;43161;50.950;18.224;2023-07-20T05:28:25;10.00;;;3.90;;
57325;SDS011;43161;50.950;18.224;2023-07-20T05:30:52;10.30;;;4.00;;
57325;SDS011;43161;50.950;18.224;2023-07-20T05:33:18;11.30;;;4.00;;
57325;SDS011;43161;50.950;18.224;2023-07-20T05:35:45;11.00;;;4.60;;
57325;SDS011;43161;50.950;18.224;2023-07-20T05:38:10;9.60;;;4.30;;
57325;SDS011;43161;50.950;18.224;2023-07-20T05:40:40;13.00;;;5.20;;
57325;SDS011;43161;50.950;18.224;2023-07-20T05:43:07;12.00;;;5.50;;
57325;SDS011;43161;50.950;18.224;2023-07-20T05:45:33;14.60;;;5.80;;
57325;SDS011;43161;50.950;18.224;2023-07-20T05:47:58;12.20;;;5.80;;
57325;SDS011;43161;50.950;18.224;2023-07-20T05:50:24;13.20;;;6.60;;
57325;SDS011;43161;50.950;18.224;2023-07-20T05:52:52;13.70;;;7.00;;
57325;SDS011;43161;50.950;18.224;2023-07-20T05:55:18;12.60;;;6.60;;
57325;SDS011;43161;50.950;18.224;2023-07-20T05:57:43;12.50;;;6.30;;
57325;SDS011;43161;50.950;18.224;2023-07-20T06:00:09;12.80;;;6.10;;
57325;SDS011;43161;50.950;18.224;2023-07-20T06:02:36;12.90;;;6.20;;
57325;SDS011;43161;50.950;18.224;2023-07-20T06:05:01;13.60;;;6.20;;
57325;SDS011;43161;50.950;18.224;2023-07-20T06:07:27;14.40;;;6.00;;
57325;SDS011;43161;50.950;18.224;2023-07-20T06:09:53;12.50;;;6.70;;
57325;SDS011;43161;50.950;18.224;2023-07-20T06:12:19;12.00;;;6.10;;
57325;SDS011;43161;50.950;18.224;2023-07-20T06:14:44;12.30;;;6.50;;
57325;SDS011;43161;50.950;18.224;2023-07-20T06:17:10;13.10;;;6.80;;
57325;SDS011;43161;50.950;18.224;2023-07-20T06:19:36;14.00;;;8.00;;
57325;SDS011;43161;50.950;18.224;2023-07-20T06:22:02;15.00;;;7.80;;
57325;SDS011;43161;50.950;18.224;2023-07-20T06:24:28;15.40;;;8.60;;
57325;SDS011;43161;50.950;18.224;2023-07-20T06:26:53;13.10;;;8.00;;
57325;SDS011;43161;50.950;18.224;2023-07-20T06:29:19;14.50;;;8.10;;
57325;SDS011;43161;50.950;18.224;2023-07-20T06:31:45;14.20;;;8.00;;
57325;SDS011;43161;50.950;18.224;2023-07-20T06:34:11;12.80;;;7.90;;
57325;SDS011;43161;50.950;18.224;2023-07-20T06:36:37;13.40;;;7.50;;
57325;SDS011;43161;50.950;18.224;2023-07-20T06:39:03;14.00;;;8.50;;
57325;SDS011;43161;50.950;18.224;2023-07-20T06:41:29;12.90;;;8.00;;
57325;SDS011;43161;50.950;18.224;2023-07-20T06:43:55;16.60;;;8.30;;
57325;SDS011;43161;50.950;18.224;2023-07-20T06:46:25;15.40;;;7.80;;
57325;SDS011;43161;50.950;18.224;2023-07-20T06:48:51;14.90;;;8.10;;
57325;SDS011;43161;50.950;18.224;2023-07-20T06:51:17;13.10;;;7.50;;
57325;SDS011;43161;50.950;18.224;2023-07-20T06:53:43;12.90;;;7.90;;
57325;SDS011;43161;50.950;18.224;2023-07-20T06:56:09;12.90;;;7.30;;
57325;SDS011;43161;50.950;18.224;2023-07-20T06:58:36;14.80;;;7.00;;
57325;SDS011;43161;50.950;18.224;2023-07-20T07:01:05;11.60;;;7.10;;
57325;SDS011;43161;50.950;18.224;2023-07-20T07:03:33;11.70;;;6.30;;
57325;SDS011;43161;50.950;18.224;2023-07-20T07:05:59;12.00;;;5.30;;
57325;SDS011;43161;50.950;18.224;2023-07-20T07:08:26;11.30;;;5.30;;
57325;SDS011;43161;50.950;18.224;2023-07-20T07:10:52;10.90;;;5.00;;
57325;SDS011;43161;50.950;18.224;2023-07-20T07:13:18;12.50;;;4.70;;
57325;SDS011;43161;50.950;18.224;2023-07-20T07:15:45;10.90;;;4.20;;
57325;SDS011;43161;50.950;18.224;2023-07-20T07:18:11;9.80;;;4.00;;
57325;SDS011;43161;50.950;18.224;2023-07-20T07:20:37;10.50;;;4.40;;
57325;SDS011;43161;50.950;18.224;2023-07-20T07:23:03;10.50;;;4.10;;
57325;SDS011;43161;50.950;18.224;2023-07-20T07:25:28;12.90;;;3.80;;
57325;SDS011;43161;50.950;18.224;2023-07-20T07:27:56;12.40;;;4.40;;
57325;SDS011;43161;50.950;18.224;2023-07-20T07:30:21;10.80;;;4.30;;
57325;SDS011;43161;50.950;18.224;2023-07-20T07:32:47;9.50;;;3.60;;
57325;SDS011;43161;50.950;18.224;2023-07-20T07:35:13;10.10;;;3.80;;
57325;SDS011;43161;50.950;18.224;2023-07-20T07:37:39;9.20;;;3.70;;
57325;SDS011;43161;50.950;18.224;2023-07-20T07:40:05;8.80;;;3.20;;
57325;SDS011;43161;50.950;18.224;2023-07-20T07:42:33;8.30;;;3.00;;
57325;SDS011;43161;50.950;18.224;2023-07-20T07:44:59;8.50;;;2.90;;
57325;SDS011;43161;50.950;18.224;2023-07-20T07:47:24;7.30;;;2.90;;
57325;SDS011;43161;50.950;18.224;2023-07-20T07:49:50;8.20;;;3.00;;
57325;SDS011;43161;50.950;18.224;2023-07-20T07:52:16;7.90;;;2.80;;
57325;SDS011;43161;50.950;18.224;2023-07-20T07:54:42;7.30;;;2.10;;
57325;SDS011;43161;50.950;18.224;2023-07-20T07:57:08;6.40;;;2.20;;
57325;SDS011;43161;50.950;18.224;2023-07-20T07:59:34;7.50;;;2.60;;
57325;SDS011;43161;50.950;18.224;2023-07-20T08:02:06;8.80;;;2.30;;
57325;SDS011;43161;50.950;18.224;2023-07-20T08:04:32;7.40;;;2.20;;
57325;SDS011;43161;50.950;18.224;2023-07-20T08:06:58;8.00;;;2.70;;
57325;SDS011;43161;50.950;18.224;2023-07-20T08:09:24;7.40;;;2.30;;
57325;SDS011;43161;50.950;18.224;2023-07-20T08:11:50;7.30;;;2.60;;
57325;SDS011;43161;50.950;18.224;2023-07-20T08:14:16;7.40;;;2.70;;
57325;SDS011;43161;50.950;18.224;2023-07-20T08:16:42;7.90;;;2.70;;
57325;SDS011;43161;50.950;18.224;2023-07-20T08:19:08;7.00;;;2.60;;
57325;SDS011;43161;50.950;18.224;2023-07-20T08:21:34;7.90;;;2.90;;
57325;SDS011;43161;50.950;18.224;2023-07-20T08:24:00;10.20;;;3.00;;
57325;SDS011;43161;50.950;18.224;2023-07-20T08:26:26;8.40;;;2.70;;
57325;SDS011;43161;50.950;18.224;2023-07-20T08:28:51;7.10;;;2.60;;
57325;SDS011;43161;50.950;18.224;2023-07-20T08:31:17;8.40;;;2.70;;
57325;SDS011;43161;50.950;18.224;2023-07-20T08:33:43;7.80;;;2.80;;
57325;SDS011;43161;50.950;18.224;2023-07-20T08:36:09;11.10;;;3.10;;
57325;SDS011;43161;50.950;18.224;2023-07-20T08:38:35;8.20;;;3.20;;
57325;SDS011;43161;50.950;18.224;2023-07-20T08:41:01;9.10;;;3.00;;
57325;SDS011;43161;50.950;18.224;2023-07-20T08:43:27;7.70;;;2.50;;
57325;SDS011;43161;50.950;18.224;2023-07-20T08:45:56;6.60;;;2.50;;
57325;SDS011;43161;50.950;18.224;2023-07-20T08:48:22;7.70;;;2.60;;
57325;SDS011;43161;50.950;18.224;2023-07-20T08:50:49;6.90;;;2.10;;
57325;SDS011;43161;50.950;18.224;2023-07-20T08:53:17;7.20;;;2.10;;
57325;SDS011;43161;50.950;18.224;2023-07-20T08:55:44;7.60;;;2.30;;
57325;SDS011;43161;50.950;18.224;2023-07-20T08:58:12;8.50;;;2.30;;
57325;SDS011;43161;50.950;18.224;2023-07-20T09:00:40;9.00;;;2.30;;
57325;SDS011;43161;50.950;18.224;2023-07-20T09:03:07;7.10;;;2.20;;
57325;SDS011;43161;50.950;18.224;2023-07-20T09:05:33;6.30;;;2.40;;
57325;SDS011;43161;50.950;18.224;2023-07-20T09:08:00;8.10;;;2.40;;
57325;SDS011;43161;50.950;18.224;2023-07-20T09:10:29;8.00;;;2.80;;
57325;SDS011;43161;50.950;18.224;2023-07-20T09:12:54;9.90;;;2.70;;
57325;SDS011;43161;50.950;18.224;2023-07-20T09:15:21;9.60;;;3.00;;
57325;SDS011;43161;50.950;18.224;2023-07-20T09:17:48;8.50;;;3.10;;
57325;SDS011;43161;50.950;18.224;2023-07-20T09:20:15;7.70;;;2.50;;
57325;SDS011;43161;50.950;18.224;2023-07-20T09:22:42;9.60;;;2.50;;
57325;SDS011;43161;50.950;18.224;2023-07-20T09:25:12;8.70;;;2.40;;
57325;SDS011;43161;50.950;18.224;2023-07-20T09:27:45;6.60;;;2.10;;
57325;SDS011;43161;50.950;18.224;2023-07-20T09:30:13;6.00;;;2.10;;
57325;SDS011;43161;50.950;18.224;2023-07-20T09:35:15;7.70;;;2.20;;
57325;SDS011;43161;50.950;18.224;2023-07-20T09:37:49;6.80;;;2.50;;
57325;SDS011;43161;50.950;18.224;2023-07-20T09:40:25;8.00;;;2.60;;
57325;SDS011;43161;50.950;18.224;2023-07-20T09:42:52;8.40;;;2.70;;
57325;SDS011;43161;50.950;18.224;2023-07-20T09:48:07;9.50;;;2.80;;
57325;SDS011;43161;50.950;18.224;2023-07-20T09:50:34;6.10;;;2.30;;
57325;SDS011;43161;50.950;18.224;2023-07-20T09:53:06;7.50;;;2.30;;
57325;SDS011;43161;50.950;18.224;2023-07-20T09:55:33;7.40;;;2.30;;
57325;SDS011;43161;50.950;18.224;2023-07-20T09:58:00;8.10;;;2.40;;
57325;SDS011;43161;50.950;18.224;2023-07-20T10:00:25;7.50;;;2.40;;
57325;SDS011;43161;50.950;18.224;2023-07-20T10:02:52;6.40;;;2.20;;
57325;SDS011;43161;50.950;18.224;2023-07-20T10:05:17;5.10;;;1.80;;
57325;SDS011;43161;50.950;18.224;2023-07-20T10:07:45;7.50;;;1.80;;
57325;SDS011;43161;50.950;18.224;2023-07-20T10:10:13;6.40;;;1.90;;
57325;SDS011;43161;50.950;18.224;2023-07-20T10:12:42;8.30;;;2.00;;
57325;SDS011;43161;50.950;18.224;2023-07-20T10:20:40;8.10;;;2.60;;
57325;SDS011;43161;50.950;18.224;2023-07-20T10:23:09;8.90;;;3.30;;
57325;SDS011;43161;50.950;18.224;2023-07-20T10:25:35;8.90;;;3.40;;
57325;SDS011;43161;50.950;18.224;2023-07-20T10:28:06;9.20;;;3.60;;
57325;SDS011;43161;50.950;18.224;2023-07-20T10:30:32;10.40;;;4.20;;
57325;SDS011;43161;50.950;18.224;2023-07-20T10:33:00;12.40;;;4.40;;
57325;SDS011;43161;50.950;18.224;2023-07-20T10:35:29;12.10;;;4.70;;
57325;SDS011;43161;50.950;18.224;2023-07-20T10:38:02;10.60;;;4.60;;
57325;SDS011;43161;50.950;18.224;2023-07-20T10:43:00;10.50;;;4.50;;
57325;SDS011;43161;50.950;18.224;2023-07-20T10:48:24;11.50;;;4.40;;
57325;SDS011;43161;50.950;18.224;2023-07-20T10:53:39;10.50;;;4.30;;
57325;SDS011;43161;50.950;18.224;2023-07-20T10:56:06;9.50;;;3.90;;
57325;SDS011;43161;50.950;18.224;2023-07-20T10:58:33;9.30;;;4.20;;
57325;SDS011;43161;50.950;18.224;2023-07-20T11:01:00;10.40;;;3.90;;
57325;SDS011;43161;50.950;18.224;2023-07-20T11:03:30;9.10;;;3.90;;
57325;SDS011;43161;50.950;18.224;2023-07-20T11:11:34;9.30;;;3.40;;
57325;SDS011;43161;50.950;18.224;2023-07-20T11:14:05;8.70;;;3.60;;
57325;SDS011;43161;50.950;18.224;2023-07-20T11:16:39;8.80;;;3.10;;
57325;SDS011;43161;50.950;18.224;2023-07-20T11:19:19;8.00;;;3.00;;
57325;SDS011;43161;50.950;18.224;2023-07-20T11:21:52;8.00;;;2.90;;
57325;SDS011;43161;50.950;18.224;2023-07-20T11:24:18;7.80;;;2.80;;
57325;SDS011;43161;50.950;18.224;2023-07-20T11:26:48;7.90;;;2.40;;
57325;SDS011;43161;50.950;18.224;2023-07-20T11:29:18;8.10;;;2.30;;
57325;SDS011;43161;50.950;18.224;2023-07-20T11:31:46;6.10;;;2.30;;
57325;SDS011;43161;50.950;18.224;2023-07-20T11:34:14;9.90;;;2.50;;
57325;SDS011;43161;50.950;18.224;2023-07-20T11:36:42;7.20;;;2.50;;
57325;SDS011;43161;50.950;18.224;2023-07-20T11:39:11;6.30;;;2.20;;
57325;SDS011;43161;50.950;18.224;2023-07-20T11:41:38;4.40;;;1.80;;
57325;SDS011;43161;50.950;18.224;2023-07-20T11:44:05;8.50;;;2.20;;
57325;SDS011;43161;50.950;18.224;2023-07-20T11:46:33;8.20;;;1.80;;
57325;SDS011;43161;50.950;18.224;2023-07-20T11:48:59;4.90;;;1.60;;
57325;SDS011;43161;50.950;18.224;2023-07-20T11:51:26;5.10;;;1.70;;
57325;SDS011;43161;50.950;18.224;2023-07-20T11:53:55;5.60;;;1.90;;
57325;SDS011;43161;50.950;18.224;2023-07-20T11:56:22;4.40;;;1.40;;
57325;SDS011;43161;50.950;18.224;2023-07-20T11:58:49;3.00;;;1.00;;
57325;SDS011;43161;50.950;18.224;2023-07-20T12:01:16;4.20;;;1.20;;
57325;SDS011;43161;50.950;18.224;2023-07-20T12:03:43;3.90;;;1.20;;
57325;SDS011;43161;50.950;18.224;2023-07-20T12:06:09;4.60;;;1.20;;
57325;SDS011;43161;50.950;18.224;2023-07-20T12:08:44;5.40;;;1.00;;
57325;SDS011;43161;50.950;18.224;2023-07-20T12:11:10;3.40;;;1.00;;
57325;SDS011;43161;50.950;18.224;2023-07-20T12:13:36;3.90;;;1.30;;
57325;SDS011;43161;50.950;18.224;2023-07-20T12:18:45;3.90;;;1.10;;
57325;SDS011;43161;50.950;18.224;2023-07-20T12:21:11;5.50;;;1.30;;
57325;SDS011;43161;50.950;18.224;2023-07-20T12:23:40;4.50;;;1.10;;
57325;SDS011;43161;50.950;18.224;2023-07-20T12:26:07;4.60;;;1.30;;
57325;SDS011;43161;50.950;18.224;2023-07-20T12:28:38;7.20;;;1.50;;
57325;SDS011;43161;50.950;18.224;2023-07-20T12:31:06;6.00;;;1.30;;
57325;SDS011;43161;50.950;18.224;2023-07-20T12:33:33;3.70;;;1.20;;
57325;SDS011;43161;50.950;18.224;2023-07-20T12:35:59;3.30;;;1.20;;
57325;SDS011;43161;50.950;18.224;2023-07-20T12:38:25;4.20;;;1.30;;
57325;SDS011;43161;50.950;18.224;2023-07-20T12:40:52;5.70;;;1.30;;
57325;SDS011;43161;50.950;18.224;2023-07-20T12:43:20;5.00;;;1.20;;
57325;SDS011;43161;50.950;18.224;2023-07-20T12:45:46;6.00;;;1.20;;
57325;SDS011;43161;50.950;18.224;2023-07-20T12:48:12;4.30;;;1.20;;
57325;SDS011;43161;50.950;18.224;2023-07-20T12:50:37;4.90;;;1.30;;
57325;SDS011;43161;50.950;18.224;2023-07-20T12:53:03;4.70;;;1.40;;
57325;SDS011;43161;50.950;18.224;2023-07-20T12:55:29;4.30;;;1.30;;
57325;SDS011;43161;50.950;18.224;2023-07-20T12:57:55;4.70;;;1.20;;
57325;SDS011;43161;50.950;18.224;2023-07-20T13:00:21;4.50;;;1.30;;
57325;SDS011;43161;50.950;18.224;2023-07-20T13:02:50;3.70;;;1.30;;
57325;SDS011;43161;50.950;18.224;2023-07-20T13:05:16;4.90;;;1.20;;
57325;SDS011;43161;50.950;18.224;2023-07-20T13:07:42;3.50;;;1.30;;
57325;SDS011;43161;50.950;18.224;2023-07-20T13:10:09;4.40;;;1.40;;
57325;SDS011;43161;50.950;18.224;2023-07-20T13:12:35;4.60;;;1.30;;
57325;SDS011;43161;50.950;18.224;2023-07-20T13:15:02;5.30;;;1.00;;
57325;SDS011;43161;50.950;18.224;2023-07-20T13:17:34;4.10;;;1.00;;
57325;SDS011;43161;50.950;18.224;2023-07-20T13:20:01;4.10;;;0.90;;
57325;SDS011;43161;50.950;18.224;2023-07-20T13:22:30;4.00;;;1.10;;
57325;SDS011;43161;50.950;18.224;2023-07-20T13:24:56;4.90;;;1.20;;
57325;SDS011;43161;50.950;18.224;2023-07-20T13:27:21;5.20;;;1.10;;
57325;SDS011;43161;50.950;18.224;2023-07-20T13:29:47;5.00;;;1.40;;
57325;SDS011;43161;50.950;18.224;2023-07-20T13:32:13;7.30;;;1.50;;
57325;SDS011;43161;50.950;18.224;2023-07-20T13:34:43;4.20;;;1.20;;
57325;SDS011;43161;50.950;18.224;2023-07-20T13:37:10;7.30;;;1.30;;
57325;SDS011;43161;50.950;18.224;2023-07-20T13:39:36;5.90;;;1.20;;
57325;SDS011;43161;50.950;18.224;2023-07-20T13:42:02;4.50;;;1.30;;
57325;SDS011;43161;50.950;18.224;2023-07-20T13:44:33;3.90;;;1.10;;
57325;SDS011;43161;50.950;18.224;2023-07-20T13:47:00;3.90;;;1.10;;
57325;SDS011;43161;50.950;18.224;2023-07-20T13:49:26;4.70;;;1.20;;
57325;SDS011;43161;50.950;18.224;2023-07-20T13:51:52;4.40;;;1.10;;
57325;SDS011;43161;50.950;18.224;2023-07-20T13:54:17;4.10;;;1.20;;
57325;SDS011;43161;50.950;18.224;2023-07-20T13:56:43;3.90;;;1.10;;
57325;SDS011;43161;50.950;18.224;2023-07-20T13:59:09;4.10;;;1.30;;
57325;SDS011;43161;50.950;18.224;2023-07-20T14:01:34;4.00;;;1.10;;
57325;SDS011;43161;50.950;18.224;2023-07-20T14:04:01;4.00;;;1.20;;
57325;SDS011;43161;50.950;18.224;2023-07-20T14:06:29;4.50;;;1.30;;
57325;SDS011;43161;50.950;18.224;2023-07-20T14:08:55;5.40;;;1.20;;
57325;SDS011;43161;50.950;18.224;2023-07-20T14:11:22;4.90;;;1.00;;
57325;SDS011;43161;50.950;18.224;2023-07-20T14:13:49;3.20;;;1.00;;
57325;SDS011;43161;50.950;18.224;2023-07-20T14:16:16;4.00;;;1.30;;
57325;SDS011;43161;50.950;18.224;2023-07-20T14:18:42;4.80;;;1.30;;
57325;SDS011;43161;50.950;18.224;2023-07-20T14:21:08;3.70;;;1.00;;
57325;SDS011;43161;50.950;18.224;2023-07-20T14:23:34;4.40;;;1.20;;
57325;SDS011;43161;50.950;18.224;2023-07-20T14:26:01;4.00;;;1.00;;
57325;SDS011;43161;50.950;18.224;2023-07-20T14:28:31;3.80;;;1.00;;
57325;SDS011;43161;50.950;18.224;2023-07-20T14:30:57;3.50;;;1.10;;
57325;SDS011;43161;50.950;18.224;2023-07-20T14:33:23;3.60;;;1.10;;
57325;SDS011;43161;50.950;18.224;2023-07-20T14:35:48;4.40;;;1.20;;
57325;SDS011;43161;50.950;18.224;2023-07-20T14:38:14;3.00;;;1.20;;
57325;SDS011;43161;50.950;18.224;2023-07-20T14:40:40;4.00;;;1.10;;
57325;SDS011;43161;50.950;18.224;2023-07-20T14:43:06;3.30;;;1.10;;
57325;SDS011;43161;50.950;18.224;2023-07-20T14:45:32;5.80;;;1.10;;
57325;SDS011;43161;50.950;18.224;2023-07-20T14:47:58;4.60;;;0.90;;
57325;SDS011;43161;50.950;18.224;2023-07-20T14:50:24;2.60;;;0.80;;
57325;SDS011;43161;50.950;18.224;2023-07-20T14:52:50;3.50;;;0.90;;
57325;SDS011;43161;50.950;18.224;2023-07-20T14:55:16;3.30;;;0.70;;
57325;SDS011;43161;50.950;18.224;2023-07-20T14:57:42;4.10;;;1.10;;
57325;SDS011;43161;50.950;18.224;2023-07-20T15:00:08;4.30;;;0.90;;
57325;SDS011;43161;50.950;18.224;2023-07-20T15:02:37;3.90;;;0.80;;